sensor_id;sensor_type;location;lat;lon;timestamp;pressure;altitude;pressure_sealevel;temperature
73937;BMP180;59249;59.736;30.568;2023-07-29T00:00:07;99819.00;;;12.60
73937;BMP180;59249;59.736;30.568;2023-07-29T00:02:42;99809.00;;;12.60
73937;BMP180;59249;59.736;30.568;2023-07-29T00:05:11;99819.00;;;12.60
73937;BMP180;59249;59.736;30.568;2023-07-29T00:07:40;99820.00;;;12.50
73937;BMP180;59249;59.736;30.568;2023-07-29T00:10:09;99820.00;;;12.60
73937;BMP180;59249;59.736;30.568;2023-07-29T00:12:38;99821.00;;;12.50
73937;BMP180;59249;59.736;30.568;2023-07-29T00:15:08;99825.00;;;12.40
73937;BMP180;59249;59.736;30.568;2023-07-29T00:17:37;99826.00;;;12.40
73937;BMP180;59249;59.736;30.568;2023-07-29T00:20:08;99824.00;;;12.40
73937;BMP180;59249;59.736;30.568;2023-07-29T00:22:37;99830.00;;;12.40
73937;BMP180;59249;59.736;30.568;2023-07-29T00:25:06;99818.00;;;12.30
73937;BMP180;59249;59.736;30.568;2023-07-29T00:27:35;99822.00;;;12.30
73937;BMP180;59249;59.736;30.568;2023-07-29T00:30:06;99825.00;;;12.30
73937;BMP180;59249;59.736;30.568;2023-07-29T00:32:36;99826.00;;;12.30
73937;BMP180;59249;59.736;30.568;2023-07-29T00:35:08;99837.00;;;12.20
73937;BMP180;59249;59.736;30.568;2023-07-29T00:37:37;99837.00;;;12.10
73937;BMP180;59249;59.736;30.568;2023-07-29T00:40:14;99838.00;;;12.10
73937;BMP180;59249;59.736;30.568;2023-07-29T00:42:44;99846.00;;;12.10
73937;BMP180;59249;59.736;30.568;2023-07-29T00:45:13;99843.00;;;12.10
73937;BMP180;59249;59.736;30.568;2023-07-29T00:47:42;99840.00;;;12.10
73937;BMP180;59249;59.736;30.568;2023-07-29T00:50:15;99837.00;;;12.10
73937;BMP180;59249;59.736;30.568;2023-07-29T00:52:44;99842.00;;;12.10
73937;BMP180;59249;59.736;30.568;2023-07-29T00:55:15;99848.00;;;12.00
73937;BMP180;59249;59.736;30.568;2023-07-29T00:57:45;99840.00;;;12.00
73937;BMP180;59249;59.736;30.568;2023-07-29T01:00:16;99845.00;;;12.00
73937;BMP180;59249;59.736;30.568;2023-07-29T01:02:45;99847.00;;;12.00
73937;BMP180;59249;59.736;30.568;2023-07-29T01:05:16;99847.00;;;12.00
73937;BMP180;59249;59.736;30.568;2023-07-29T01:07:51;99858.00;;;12.00
73937;BMP180;59249;59.736;30.568;2023-07-29T01:10:31;99868.00;;;12.00
73937;BMP180;59249;59.736;30.568;2023-07-29T01:13:16;99869.00;;;12.00
73937;BMP180;59249;59.736;30.568;2023-07-29T01:15:53;99868.00;;;12.00
73937;BMP180;59249;59.736;30.568;2023-07-29T01:18:26;99867.00;;;12.00
73937;BMP180;59249;59.736;30.568;2023-07-29T01:21:04;99874.00;;;12.00
73937;BMP180;59249;59.736;30.568;2023-07-29T01:23:38;99868.00;;;12.00
73937;BMP180;59249;59.736;30.568;2023-07-29T01:26:07;99872.00;;;12.00
73937;BMP180;59249;59.736;30.568;2023-07-29T01:28:36;99869.00;;;12.00
73937;BMP180;59249;59.736;30.568;2023-07-29T01:31:10;99866.00;;;12.00
73937;BMP180;59249;59.736;30.568;2023-07-29T01:33:48;99862.00;;;12.00
73937;BMP180;59249;59.736;30.568;2023-07-29T01:36:22;99869.00;;;12.00
73937;BMP180;59249;59.736;30.568;2023-07-29T01:38:57;99868.00;;;12.00
73937;BMP180;59249;59.736;30.568;2023-07-29T01:41:28;99865.00;;;12.00
73937;BMP180;59249;59.736;30.568;2023-07-29T01:43:57;99865.00;;;12.10
73937;BMP180;59249;59.736;30.568;2023-07-29T01:46:27;99855.00;;;12.10
73937;BMP180;59249;59.736;30.568;2023-07-29T01:48:56;99862.00;;;12.10
73937;BMP180;59249;59.736;30.568;2023-07-29T01:51:25;99860.00;;;12.10
73937;BMP180;59249;59.736;30.568;2023-07-29T01:53:53;99865.00;;;12.10
73937;BMP180;59249;59.736;30.568;2023-07-29T01:56:24;99862.00;;;12.20
73937;BMP180;59249;59.736;30.568;2023-07-29T01:58:55;99857.00;;;12.20
73937;BMP180;59249;59.736;30.568;2023-07-29T02:01:24;99860.00;;;12.20
73937;BMP180;59249;59.736;30.568;2023-07-29T02:03:53;99855.00;;;12.20
73937;BMP180;59249;59.736;30.568;2023-07-29T02:06:24;99854.00;;;12.30
73937;BMP180;59249;59.736;30.568;2023-07-29T02:08:54;99845.00;;;12.30
73937;BMP180;59249;59.736;30.568;2023-07-29T02:11:24;99863.00;;;12.30
73937;BMP180;59249;59.736;30.568;2023-07-29T02:13:56;99861.00;;;12.40
73937;BMP180;59249;59.736;30.568;2023-07-29T02:16:26;99856.00;;;12.60
73937;BMP180;59249;59.736;30.568;2023-07-29T02:18:56;99859.00;;;12.70
73937;BMP180;59249;59.736;30.568;2023-07-29T02:21:25;99857.00;;;13.00
73937;BMP180;59249;59.736;30.568;2023-07-29T02:23:54;99858.00;;;13.20
73937;BMP180;59249;59.736;30.568;2023-07-29T02:26:24;99856.00;;;13.20
73937;BMP180;59249;59.736;30.568;2023-07-29T02:28:53;99857.00;;;13.40
73937;BMP180;59249;59.736;30.568;2023-07-29T02:31:24;99869.00;;;13.60
73937;BMP180;59249;59.736;30.568;2023-07-29T02:33:53;99866.00;;;13.70
73937;BMP180;59249;59.736;30.568;2023-07-29T02:36:23;99860.00;;;13.90
73937;BMP180;59249;59.736;30.568;2023-07-29T02:38:52;99864.00;;;14.10
73937;BMP180;59249;59.736;30.568;2023-07-29T02:41:20;99866.00;;;14.20
73937;BMP180;59249;59.736;30.568;2023-07-29T02:43:51;99873.00;;;14.50
73937;BMP180;59249;59.736;30.568;2023-07-29T02:46:20;99874.00;;;14.70
73937;BMP180;59249;59.736;30.568;2023-07-29T02:48:50;99870.00;;;14.80
73937;BMP180;59249;59.736;30.568;2023-07-29T02:51:19;99880.00;;;14.80
73937;BMP180;59249;59.736;30.568;2023-07-29T02:53:48;99881.00;;;15.20
73937;BMP180;59249;59.736;30.568;2023-07-29T02:56:17;99882.00;;;15.30
73937;BMP180;59249;59.736;30.568;2023-07-29T02:58:46;99895.00;;;15.40
73937;BMP180;59249;59.736;30.568;2023-07-29T03:01:16;99888.00;;;15.50
73937;BMP180;59249;59.736;30.568;2023-07-29T03:03:51;99890.00;;;15.60
73937;BMP180;59249;59.736;30.568;2023-07-29T03:06:25;99897.00;;;15.70
73937;BMP180;59249;59.736;30.568;2023-07-29T03:08:54;99893.00;;;15.70
73937;BMP180;59249;59.736;30.568;2023-07-29T03:11:23;99897.00;;;15.60
73937;BMP180;59249;59.736;30.568;2023-07-29T03:13:52;99897.00;;;15.70
73937;BMP180;59249;59.736;30.568;2023-07-29T03:16:22;99904.00;;;15.70
73937;BMP180;59249;59.736;30.568;2023-07-29T03:18:54;99901.00;;;15.60
73937;BMP180;59249;59.736;30.568;2023-07-29T03:21:24;99900.00;;;15.60
73937;BMP180;59249;59.736;30.568;2023-07-29T03:23:53;99901.00;;;15.40
73937;BMP180;59249;59.736;30.568;2023-07-29T03:26:22;99900.00;;;15.60
73937;BMP180;59249;59.736;30.568;2023-07-29T03:28:52;99898.00;;;15.50
73937;BMP180;59249;59.736;30.568;2023-07-29T03:31:22;99897.00;;;15.40
73937;BMP180;59249;59.736;30.568;2023-07-29T03:33:51;99895.00;;;15.20
73937;BMP180;59249;59.736;30.568;2023-07-29T03:36:21;99898.00;;;15.20
73937;BMP180;59249;59.736;30.568;2023-07-29T03:38:53;99903.00;;;15.20
73937;BMP180;59249;59.736;30.568;2023-07-29T03:41:21;99910.00;;;15.10
73937;BMP180;59249;59.736;30.568;2023-07-29T03:43:50;99906.00;;;14.90
73937;BMP180;59249;59.736;30.568;2023-07-29T03:46:19;99913.00;;;14.70
73937;BMP180;59249;59.736;30.568;2023-07-29T03:48:51;99916.00;;;14.70
73937;BMP180;59249;59.736;30.568;2023-07-29T03:51:20;99916.00;;;14.60
73937;BMP180;59249;59.736;30.568;2023-07-29T03:53:50;99917.00;;;14.50
73937;BMP180;59249;59.736;30.568;2023-07-29T03:56:19;99919.00;;;14.50
73937;BMP180;59249;59.736;30.568;2023-07-29T03:58:48;99916.00;;;14.60
73937;BMP180;59249;59.736;30.568;2023-07-29T04:01:17;99920.00;;;14.60
73937;BMP180;59249;59.736;30.568;2023-07-29T04:03:46;99916.00;;;14.70
73937;BMP180;59249;59.736;30.568;2023-07-29T04:06:16;99920.00;;;14.70
73937;BMP180;59249;59.736;30.568;2023-07-29T04:08:45;99929.00;;;14.80
73937;BMP180;59249;59.736;30.568;2023-07-29T04:11:14;99924.00;;;14.90
73937;BMP180;59249;59.736;30.568;2023-07-29T04:13:43;99935.00;;;15.00
73937;BMP180;59249;59.736;30.568;2023-07-29T04:16:12;99929.00;;;15.00
73937;BMP180;59249;59.736;30.568;2023-07-29T04:18:41;99929.00;;;15.10
73937;BMP180;59249;59.736;30.568;2023-07-29T04:21:09;99934.00;;;15.10
73937;BMP180;59249;59.736;30.568;2023-07-29T04:23:42;99930.00;;;15.10
73937;BMP180;59249;59.736;30.568;2023-07-29T04:26:11;99928.00;;;15.20
73937;BMP180;59249;59.736;30.568;2023-07-29T04:28:39;99931.00;;;15.10
73937;BMP180;59249;59.736;30.568;2023-07-29T04:31:08;99933.00;;;15.20
73937;BMP180;59249;59.736;30.568;2023-07-29T04:33:37;99932.00;;;15.20
73937;BMP180;59249;59.736;30.568;2023-07-29T04:36:06;99930.00;;;15.20
73937;BMP180;59249;59.736;30.568;2023-07-29T04:38:37;99926.00;;;15.20
73937;BMP180;59249;59.736;30.568;2023-07-29T04:41:07;99931.00;;;15.30
73937;BMP180;59249;59.736;30.568;2023-07-29T04:43:36;99928.00;;;15.30
73937;BMP180;59249;59.736;30.568;2023-07-29T04:46:06;99938.00;;;15.30
73937;BMP180;59249;59.736;30.568;2023-07-29T04:48:36;99930.00;;;15.50
73937;BMP180;59249;59.736;30.568;2023-07-29T04:51:05;99923.00;;;15.70
73937;BMP180;59249;59.736;30.568;2023-07-29T04:53:34;99921.00;;;15.80
73937;BMP180;59249;59.736;30.568;2023-07-29T04:56:05;99921.00;;;15.90
73937;BMP180;59249;59.736;30.568;2023-07-29T04:58:35;99914.00;;;15.90
73937;BMP180;59249;59.736;30.568;2023-07-29T05:01:05;99921.00;;;16.00
73937;BMP180;59249;59.736;30.568;2023-07-29T05:03:35;99926.00;;;16.00
73937;BMP180;59249;59.736;30.568;2023-07-29T05:06:07;99921.00;;;16.00
73937;BMP180;59249;59.736;30.568;2023-07-29T05:08:36;99930.00;;;16.20
73937;BMP180;59249;59.736;30.568;2023-07-29T05:11:06;99931.00;;;16.20
73937;BMP180;59249;59.736;30.568;2023-07-29T05:13:36;99931.00;;;16.30
73937;BMP180;59249;59.736;30.568;2023-07-29T05:16:06;99937.00;;;16.30
73937;BMP180;59249;59.736;30.568;2023-07-29T05:18:35;99935.00;;;16.40
73937;BMP180;59249;59.736;30.568;2023-07-29T05:21:04;99930.00;;;16.40
73937;BMP180;59249;59.736;30.568;2023-07-29T05:23:35;99933.00;;;16.50
73937;BMP180;59249;59.736;30.568;2023-07-29T05:26:04;99933.00;;;16.60
73937;BMP180;59249;59.736;30.568;2023-07-29T05:28:34;99939.00;;;16.60
73937;BMP180;59249;59.736;30.568;2023-07-29T05:31:03;99932.00;;;16.60
73937;BMP180;59249;59.736;30.568;2023-07-29T05:33:32;99930.00;;;16.70
73937;BMP180;59249;59.736;30.568;2023-07-29T05:36:04;99931.00;;;16.80
73937;BMP180;59249;59.736;30.568;2023-07-29T05:38:33;99930.00;;;16.70
73937;BMP180;59249;59.736;30.568;2023-07-29T05:41:02;99933.00;;;16.70
73937;BMP180;59249;59.736;30.568;2023-07-29T05:43:31;99926.00;;;16.90
73937;BMP180;59249;59.736;30.568;2023-07-29T05:46:02;99928.00;;;17.10
73937;BMP180;59249;59.736;30.568;2023-07-29T05:48:31;99929.00;;;17.20
73937;BMP180;59249;59.736;30.568;2023-07-29T05:51:02;99922.00;;;17.20
73937;BMP180;59249;59.736;30.568;2023-07-29T05:53:32;99924.00;;;17.40
73937;BMP180;59249;59.736;30.568;2023-07-29T05:56:01;99928.00;;;17.50
73937;BMP180;59249;59.736;30.568;2023-07-29T05:58:30;99914.00;;;17.50
73937;BMP180;59249;59.736;30.568;2023-07-29T06:00:59;99913.00;;;17.60
73937;BMP180;59249;59.736;30.568;2023-07-29T06:03:30;99912.00;;;17.70
73937;BMP180;59249;59.736;30.568;2023-07-29T06:05:59;99907.00;;;17.70
73937;BMP180;59249;59.736;30.568;2023-07-29T06:08:28;99911.00;;;17.80
73937;BMP180;59249;59.736;30.568;2023-07-29T06:11:00;99902.00;;;17.90
73937;BMP180;59249;59.736;30.568;2023-07-29T06:13:29;99905.00;;;18.00
73937;BMP180;59249;59.736;30.568;2023-07-29T06:15:58;99901.00;;;17.90
73937;BMP180;59249;59.736;30.568;2023-07-29T06:18:27;99899.00;;;17.90
73937;BMP180;59249;59.736;30.568;2023-07-29T06:20:57;99894.00;;;17.80
73937;BMP180;59249;59.736;30.568;2023-07-29T06:23:26;99896.00;;;17.80
73937;BMP180;59249;59.736;30.568;2023-07-29T06:25:55;99895.00;;;17.70
73937;BMP180;59249;59.736;30.568;2023-07-29T06:28:24;99898.00;;;17.70
73937;BMP180;59249;59.736;30.568;2023-07-29T06:30:53;99899.00;;;17.70
73937;BMP180;59249;59.736;30.568;2023-07-29T06:33:21;99906.00;;;17.80
73937;BMP180;59249;59.736;30.568;2023-07-29T06:35:50;99916.00;;;17.80
73937;BMP180;59249;59.736;30.568;2023-07-29T06:38:21;99913.00;;;17.90
73937;BMP180;59249;59.736;30.568;2023-07-29T06:40:50;99915.00;;;18.10
73937;BMP180;59249;59.736;30.568;2023-07-29T06:43:19;99900.00;;;18.20
73937;BMP180;59249;59.736;30.568;2023-07-29T06:45:48;99896.00;;;18.40
73937;BMP180;59249;59.736;30.568;2023-07-29T06:48:17;99898.00;;;18.40
73937;BMP180;59249;59.736;30.568;2023-07-29T06:50:47;99885.00;;;18.40
73937;BMP180;59249;59.736;30.568;2023-07-29T06:53:18;99895.00;;;18.30
73937;BMP180;59249;59.736;30.568;2023-07-29T06:55:48;99888.00;;;18.30
73937;BMP180;59249;59.736;30.568;2023-07-29T06:58:16;99885.00;;;18.40
73937;BMP180;59249;59.736;30.568;2023-07-29T07:00:45;99894.00;;;18.40
73937;BMP180;59249;59.736;30.568;2023-07-29T07:03:14;99897.00;;;18.50
73937;BMP180;59249;59.736;30.568;2023-07-29T07:05:43;99889.00;;;18.50
73937;BMP180;59249;59.736;30.568;2023-07-29T07:08:12;99880.00;;;18.60
73937;BMP180;59249;59.736;30.568;2023-07-29T07:10:41;99894.00;;;18.80
73937;BMP180;59249;59.736;30.568;2023-07-29T07:13:11;99877.00;;;18.90
73937;BMP180;59249;59.736;30.568;2023-07-29T07:15:42;99880.00;;;19.00
73937;BMP180;59249;59.736;30.568;2023-07-29T07:18:12;99876.00;;;19.00
73937;BMP180;59249;59.736;30.568;2023-07-29T07:20:41;99880.00;;;19.20
73937;BMP180;59249;59.736;30.568;2023-07-29T07:23:09;99873.00;;;19.20
73937;BMP180;59249;59.736;30.568;2023-07-29T07:25:40;99884.00;;;19.40
73937;BMP180;59249;59.736;30.568;2023-07-29T07:28:11;99885.00;;;19.40
73937;BMP180;59249;59.736;30.568;2023-07-29T07:30:40;99879.00;;;19.60
73937;BMP180;59249;59.736;30.568;2023-07-29T07:33:14;99875.00;;;19.70
73937;BMP180;59249;59.736;30.568;2023-07-29T07:35:43;99875.00;;;19.90
73937;BMP180;59249;59.736;30.568;2023-07-29T07:38:12;99868.00;;;20.00
73937;BMP180;59249;59.736;30.568;2023-07-29T07:40:41;99877.00;;;20.00
73937;BMP180;59249;59.736;30.568;2023-07-29T07:43:13;99880.00;;;20.00
73937;BMP180;59249;59.736;30.568;2023-07-29T07:45:42;99867.00;;;20.20
73937;BMP180;59249;59.736;30.568;2023-07-29T07:48:11;99874.00;;;20.10
73937;BMP180;59249;59.736;30.568;2023-07-29T07:50:40;99880.00;;;20.10
73937;BMP180;59249;59.736;30.568;2023-07-29T07:53:09;99883.00;;;20.20
73937;BMP180;59249;59.736;30.568;2023-07-29T07:55:40;99882.00;;;20.30
73937;BMP180;59249;59.736;30.568;2023-07-29T07:58:09;99888.00;;;20.30
73937;BMP180;59249;59.736;30.568;2023-07-29T08:00:39;99881.00;;;20.30
73937;BMP180;59249;59.736;30.568;2023-07-29T08:03:08;99889.00;;;20.20
73937;BMP180;59249;59.736;30.568;2023-07-29T08:05:37;99883.00;;;20.30
73937;BMP180;59249;59.736;30.568;2023-07-29T08:08:06;99875.00;;;20.40
73937;BMP180;59249;59.736;30.568;2023-07-29T08:10:38;99883.00;;;20.40
73937;BMP180;59249;59.736;30.568;2023-07-29T08:13:07;99875.00;;;20.30
73937;BMP180;59249;59.736;30.568;2023-07-29T08:15:40;99871.00;;;20.40
73937;BMP180;59249;59.736;30.568;2023-07-29T08:18:09;99884.00;;;20.50
73937;BMP180;59249;59.736;30.568;2023-07-29T08:20:38;99884.00;;;20.40
73937;BMP180;59249;59.736;30.568;2023-07-29T08:23:07;99886.00;;;20.50
73937;BMP180;59249;59.736;30.568;2023-07-29T08:25:36;99881.00;;;20.50
73937;BMP180;59249;59.736;30.568;2023-07-29T08:28:05;99876.00;;;20.60
73937;BMP180;59249;59.736;30.568;2023-07-29T08:30:33;99871.00;;;20.70
73937;BMP180;59249;59.736;30.568;2023-07-29T08:33:05;99875.00;;;20.70
73937;BMP180;59249;59.736;30.568;2023-07-29T08:35:34;99877.00;;;20.80
73937;BMP180;59249;59.736;30.568;2023-07-29T08:38:03;99880.00;;;20.90
73937;BMP180;59249;59.736;30.568;2023-07-29T08:40:34;99885.00;;;20.70
73937;BMP180;59249;59.736;30.568;2023-07-29T08:43:05;99865.00;;;20.60
73937;BMP180;59249;59.736;30.568;2023-07-29T08:45:35;99861.00;;;20.60
73937;BMP180;59249;59.736;30.568;2023-07-29T08:48:08;99873.00;;;20.60
73937;BMP180;59249;59.736;30.568;2023-07-29T08:50:39;99878.00;;;20.60
73937;BMP180;59249;59.736;30.568;2023-07-29T08:53:17;99867.00;;;20.60
73937;BMP180;59249;59.736;30.568;2023-07-29T08:55:47;99873.00;;;20.70
73937;BMP180;59249;59.736;30.568;2023-07-29T08:58:17;99875.00;;;20.80
73937;BMP180;59249;59.736;30.568;2023-07-29T09:00:47;99871.00;;;20.80
73937;BMP180;59249;59.736;30.568;2023-07-29T09:03:19;99878.00;;;20.90
73937;BMP180;59249;59.736;30.568;2023-07-29T09:05:48;99877.00;;;20.90
73937;BMP180;59249;59.736;30.568;2023-07-29T09:08:20;99875.00;;;21.00
73937;BMP180;59249;59.736;30.568;2023-07-29T09:10:49;99865.00;;;21.10
73937;BMP180;59249;59.736;30.568;2023-07-29T09:13:19;99876.00;;;21.10
73937;BMP180;59249;59.736;30.568;2023-07-29T09:15:48;99881.00;;;21.10
73937;BMP180;59249;59.736;30.568;2023-07-29T09:18:19;99879.00;;;21.20
73937;BMP180;59249;59.736;30.568;2023-07-29T09:20:52;99874.00;;;21.30
73937;BMP180;59249;59.736;30.568;2023-07-29T09:23:22;99869.00;;;21.40
73937;BMP180;59249;59.736;30.568;2023-07-29T09:26:00;99852.00;;;21.30
73937;BMP180;59249;59.736;30.568;2023-07-29T09:28:33;99869.00;;;21.20
73937;BMP180;59249;59.736;30.568;2023-07-29T09:31:03;99877.00;;;21.20
73937;BMP180;59249;59.736;30.568;2023-07-29T09:33:35;99870.00;;;21.20
73937;BMP180;59249;59.736;30.568;2023-07-29T09:36:09;99860.00;;;21.30
73937;BMP180;59249;59.736;30.568;2023-07-29T09:38:38;99876.00;;;21.30
73937;BMP180;59249;59.736;30.568;2023-07-29T09:41:07;99862.00;;;21.30
73937;BMP180;59249;59.736;30.568;2023-07-29T09:43:40;99852.00;;;21.40
73937;BMP180;59249;59.736;30.568;2023-07-29T09:46:09;99877.00;;;21.40
73937;BMP180;59249;59.736;30.568;2023-07-29T09:48:39;99878.00;;;21.40
73937;BMP180;59249;59.736;30.568;2023-07-29T09:51:10;99875.00;;;21.70
73937;BMP180;59249;59.736;30.568;2023-07-29T09:53:41;99873.00;;;21.80
73937;BMP180;59249;59.736;30.568;2023-07-29T09:56:14;99876.00;;;21.90
73937;BMP180;59249;59.736;30.568;2023-07-29T09:58:47;99881.00;;;22.00
73937;BMP180;59249;59.736;30.568;2023-07-29T10:01:17;99876.00;;;22.20
73937;BMP180;59249;59.736;30.568;2023-07-29T10:03:48;99887.00;;;22.20
73937;BMP180;59249;59.736;30.568;2023-07-29T10:06:18;99887.00;;;22.40
73937;BMP180;59249;59.736;30.568;2023-07-29T10:08:49;99886.00;;;22.50
73937;BMP180;59249;59.736;30.568;2023-07-29T10:11:21;99883.00;;;22.50
73937;BMP180;59249;59.736;30.568;2023-07-29T10:13:53;99887.00;;;22.50
73937;BMP180;59249;59.736;30.568;2023-07-29T10:16:36;99884.00;;;22.40
73937;BMP180;59249;59.736;30.568;2023-07-29T10:19:07;99894.00;;;22.60
73937;BMP180;59249;59.736;30.568;2023-07-29T10:21:44;99892.00;;;22.70
73937;BMP180;59249;59.736;30.568;2023-07-29T10:24:19;99883.00;;;22.60
73937;BMP180;59249;59.736;30.568;2023-07-29T10:26:58;99895.00;;;22.70
73937;BMP180;59249;59.736;30.568;2023-07-29T10:29:30;99887.00;;;22.50
73937;BMP180;59249;59.736;30.568;2023-07-29T10:32:02;99896.00;;;22.50
73937;BMP180;59249;59.736;30.568;2023-07-29T10:34:33;99890.00;;;22.60
73937;BMP180;59249;59.736;30.568;2023-07-29T10:37:04;99890.00;;;22.40
73937;BMP180;59249;59.736;30.568;2023-07-29T10:39:38;99894.00;;;22.60
73937;BMP180;59249;59.736;30.568;2023-07-29T10:42:08;99890.00;;;22.50
73937;BMP180;59249;59.736;30.568;2023-07-29T10:44:47;99894.00;;;22.60
73937;BMP180;59249;59.736;30.568;2023-07-29T10:47:22;99898.00;;;22.60
73937;BMP180;59249;59.736;30.568;2023-07-29T10:49:55;99890.00;;;22.50
73937;BMP180;59249;59.736;30.568;2023-07-29T10:52:30;99901.00;;;22.50
73937;BMP180;59249;59.736;30.568;2023-07-29T10:55:24;99894.00;;;22.60
73937;BMP180;59249;59.736;30.568;2023-07-29T10:58:10;99896.00;;;22.50
73937;BMP180;59249;59.736;30.568;2023-07-29T11:00:43;99890.00;;;22.50
73937;BMP180;59249;59.736;30.568;2023-07-29T11:03:13;99881.00;;;22.60
73937;BMP180;59249;59.736;30.568;2023-07-29T11:05:47;99882.00;;;22.60
73937;BMP180;59249;59.736;30.568;2023-07-29T11:08:22;99884.00;;;22.40
73937;BMP180;59249;59.736;30.568;2023-07-29T11:11:02;99876.00;;;22.60
73937;BMP180;59249;59.736;30.568;2023-07-29T11:13:34;99879.00;;;22.40
73937;BMP180;59249;59.736;30.568;2023-07-29T11:16:05;99887.00;;;22.40
73937;BMP180;59249;59.736;30.568;2023-07-29T11:18:35;99875.00;;;22.50
73937;BMP180;59249;59.736;30.568;2023-07-29T11:21:05;99872.00;;;22.60
73937;BMP180;59249;59.736;30.568;2023-07-29T11:23:36;99885.00;;;22.70
73937;BMP180;59249;59.736;30.568;2023-07-29T11:26:05;99874.00;;;22.70
73937;BMP180;59249;59.736;30.568;2023-07-29T11:28:38;99870.00;;;22.80
73937;BMP180;59249;59.736;30.568;2023-07-29T11:31:08;99884.00;;;22.80
73937;BMP180;59249;59.736;30.568;2023-07-29T11:33:38;99876.00;;;22.70
73937;BMP180;59249;59.736;30.568;2023-07-29T11:36:18;99869.00;;;22.90
73937;BMP180;59249;59.736;30.568;2023-07-29T11:38:47;99883.00;;;22.80
73937;BMP180;59249;59.736;30.568;2023-07-29T11:41:19;99872.00;;;22.80
73937;BMP180;59249;59.736;30.568;2023-07-29T11:43:50;99868.00;;;22.90
73937;BMP180;59249;59.736;30.568;2023-07-29T11:46:22;99859.00;;;23.00
73937;BMP180;59249;59.736;30.568;2023-07-29T11:48:53;99866.00;;;23.00
73937;BMP180;59249;59.736;30.568;2023-07-29T11:51:25;99864.00;;;23.20
73937;BMP180;59249;59.736;30.568;2023-07-29T11:53:54;99857.00;;;23.10
73937;BMP180;59249;59.736;30.568;2023-07-29T11:56:26;99862.00;;;23.10
73937;BMP180;59249;59.736;30.568;2023-07-29T11:58:57;99853.00;;;23.20
73937;BMP180;59249;59.736;30.568;2023-07-29T12:01:27;99859.00;;;23.20
73937;BMP180;59249;59.736;30.568;2023-07-29T12:04:00;99865.00;;;23.20
73937;BMP180;59249;59.736;30.568;2023-07-29T12:06:31;99860.00;;;23.20
73937;BMP180;59249;59.736;30.568;2023-07-29T12:09:03;99859.00;;;23.20
73937;BMP180;59249;59.736;30.568;2023-07-29T12:11:33;99856.00;;;23.10
73937;BMP180;59249;59.736;30.568;2023-07-29T12:14:02;99861.00;;;23.10
73937;BMP180;59249;59.736;30.568;2023-07-29T12:16:31;99866.00;;;23.10
73937;BMP180;59249;59.736;30.568;2023-07-29T12:19:08;99864.00;;;23.10
73937;BMP180;59249;59.736;30.568;2023-07-29T12:21:38;99875.00;;;23.10
73937;BMP180;59249;59.736;30.568;2023-07-29T12:24:09;99867.00;;;23.10
73937;BMP180;59249;59.736;30.568;2023-07-29T12:26:43;99860.00;;;23.20
73937;BMP180;59249;59.736;30.568;2023-07-29T12:29:16;99861.00;;;23.30
73937;BMP180;59249;59.736;30.568;2023-07-29T12:31:46;99868.00;;;23.20
73937;BMP180;59249;59.736;30.568;2023-07-29T12:34:19;99869.00;;;23.20
73937;BMP180;59249;59.736;30.568;2023-07-29T12:36:50;99870.00;;;23.10
73937;BMP180;59249;59.736;30.568;2023-07-29T12:39:25;99868.00;;;23.20
73937;BMP180;59249;59.736;30.568;2023-07-29T12:41:57;99866.00;;;23.10
73937;BMP180;59249;59.736;30.568;2023-07-29T12:44:30;99865.00;;;23.10
73937;BMP180;59249;59.736;30.568;2023-07-29T12:47:02;99867.00;;;23.30
73937;BMP180;59249;59.736;30.568;2023-07-29T12:49:32;99864.00;;;23.40
73937;BMP180;59249;59.736;30.568;2023-07-29T12:52:06;99861.00;;;23.40
73937;BMP180;59249;59.736;30.568;2023-07-29T12:54:41;99861.00;;;23.50
73937;BMP180;59249;59.736;30.568;2023-07-29T12:57:12;99864.00;;;23.60
73937;BMP180;59249;59.736;30.568;2023-07-29T12:59:41;99876.00;;;23.60
73937;BMP180;59249;59.736;30.568;2023-07-29T13:02:09;99857.00;;;23.70
73937;BMP180;59249;59.736;30.568;2023-07-29T13:04:38;99855.00;;;23.70
73937;BMP180;59249;59.736;30.568;2023-07-29T13:07:09;99860.00;;;23.70
73937;BMP180;59249;59.736;30.568;2023-07-29T13:09:38;99857.00;;;23.50
73937;BMP180;59249;59.736;30.568;2023-07-29T13:12:07;99867.00;;;23.50
73937;BMP180;59249;59.736;30.568;2023-07-29T13:14:36;99863.00;;;23.60
73937;BMP180;59249;59.736;30.568;2023-07-29T13:17:05;99861.00;;;23.60
73937;BMP180;59249;59.736;30.568;2023-07-29T13:19:34;99864.00;;;23.70
73937;BMP180;59249;59.736;30.568;2023-07-29T13:22:04;99865.00;;;23.80
73937;BMP180;59249;59.736;30.568;2023-07-29T13:24:37;99865.00;;;23.70
73937;BMP180;59249;59.736;30.568;2023-07-29T13:27:20;99871.00;;;23.70
73937;BMP180;59249;59.736;30.568;2023-07-29T13:29:51;99872.00;;;23.60
73937;BMP180;59249;59.736;30.568;2023-07-29T13:32:20;99854.00;;;23.60
73937;BMP180;59249;59.736;30.568;2023-07-29T13:34:49;99874.00;;;23.70
73937;BMP180;59249;59.736;30.568;2023-07-29T13:37:18;99861.00;;;23.70
73937;BMP180;59249;59.736;30.568;2023-07-29T13:39:48;99881.00;;;23.90
73937;BMP180;59249;59.736;30.568;2023-07-29T13:42:17;99876.00;;;23.80
73937;BMP180;59249;59.736;30.568;2023-07-29T13:44:46;99871.00;;;23.80
73937;BMP180;59249;59.736;30.568;2023-07-29T13:47:15;99868.00;;;23.90
73937;BMP180;59249;59.736;30.568;2023-07-29T13:49:44;99876.00;;;23.80
73937;BMP180;59249;59.736;30.568;2023-07-29T13:52:13;99874.00;;;23.70
73937;BMP180;59249;59.736;30.568;2023-07-29T13:54:42;99866.00;;;23.60
73937;BMP180;59249;59.736;30.568;2023-07-29T13:57:13;99869.00;;;23.50
73937;BMP180;59249;59.736;30.568;2023-07-29T13:59:42;99883.00;;;23.50
73937;BMP180;59249;59.736;30.568;2023-07-29T14:02:13;99884.00;;;23.50
73937;BMP180;59249;59.736;30.568;2023-07-29T14:04:46;99852.00;;;23.30
73937;BMP180;59249;59.736;30.568;2023-07-29T14:07:16;99875.00;;;23.30
73937;BMP180;59249;59.736;30.568;2023-07-29T14:09:45;99874.00;;;23.10
73937;BMP180;59249;59.736;30.568;2023-07-29T14:12:15;99900.00;;;22.90
73937;BMP180;59249;59.736;30.568;2023-07-29T14:14:48;99897.00;;;22.70